Terminal Aerodrome Forecast
Issued by NWS

Home | Current Version | Previous Version | Text Only | Print | Product List | Glossary On
Versions: 1 2 3 4 5 6 7 8 9 10 11 12 13 14 15
000
FTUS45 KVEF 162320
TAFBIH
TAF
KBIH 162320Z 1700/1724 36024G34KT P6SM BKN050
     FM170700 35013G24KT P6SM SCT060 SCT250
     FM172000 25011KT P6SM FEW250=

USA.gov is the U.S. government's official web portal to all federal, state and local government web resources and services.